Terminal Aerodrome Forecast
Issued by NWS

Home | Current Version | Previous Version | Text Only | Print | Product List | Glossary On
Versions: 1 2 3 4 5 6 7 8 9 10 11 12 13 14 15 16 17 18 19 20 21 22 23 24 25 26 27 28
000
FTUS44 KTSA 260100 AAA
TAFFYV
TAF AMD
KFYV 260117Z 2601/2624 11007G20KT P6SM -RA VCTS FEW027 SCT070CB
      OVC100
     FM260400 13004KT P6SM VCTS SCT040CB OVC250
      TEMPO 2604/2607 5SM -TSRA BKN025CB
     FM260700 19004KT P6SM OVC040
     FM260800 17002KT 3SM BR OVC007
     FM261500 24005KT P6SM BKN015
     FM261800 16006KT P6SM SCT035=

USA.gov is the U.S. government's official web portal to all federal, state and local government web resources and services.